Time;durP1;ratioP1;P1;durP2;ratioP2;P2;SDS_P1;SDS_P2;PMS_P1;PMS_P2;Temp;Humidity;BMP_temperature;BMP_pressure;BME280_temperature;BME280_humidity;BME280_pressure;Samples;Min_cycle;Max_cycle;Signal;HPM_P1;HPM_P2
2021/01/23 00:01:32;;;;;;;18.17;9.27;;;;;;;3.52;100.00;93936.09;5026279;28;20305;-71
2021/01/23 00:03:58;;;;;;;16.67;7.93;;;;;;;3.51;100.00;93931.09;5026662;28;20252;-71
2021/01/23 00:06:24;;;;;;;16.63;8.60;;;;;;;3.50;100.00;93948.53;5026760;28;20372;-71
2021/01/23 00:08:51;;;;;;;20.90;10.17;;;;;;;3.43;100.00;93947.66;5026577;28;20703;-71
2021/01/23 00:11:17;;;;;;;20.60;9.67;;;;;;;3.43;100.00;93957.28;5025401;28;20209;-71
2021/01/23 00:13:43;;;;;;;20.43;9.13;;;;;;;3.33;100.00;93962.00;5025906;28;20263;-70
2021/01/23 00:16:09;;;;;;;15.73;7.93;;;;;;;3.23;100.00;93964.94;5026037;28;21077;-70
2021/01/23 00:18:35;;;;;;;14.67;7.37;;;;;;;3.13;100.00;93963.63;5025488;28;20201;-70
2021/01/23 00:21:01;;;;;;;16.33;7.23;;;;;;;3.15;100.00;93964.25;5025105;28;20248;-70
2021/01/23 00:23:27;;;;;;;8.83;4.03;;;;;;;3.12;100.00;93977.63;5025982;28;20592;-70
2021/01/23 00:25:54;;;;;;;8.20;4.43;;;;;;;3.02;100.00;93984.94;5023540;28;20279;-70
2021/01/23 00:28:20;;;;;;;9.80;4.67;;;;;;;2.92;100.00;93994.06;5025131;28;20219;-70
2021/01/23 00:30:46;;;;;;;7.07;3.50;;;;;;;2.82;100.00;93996.94;5024549;28;20234;-70
2021/01/23 00:33:12;;;;;;;6.23;3.37;;;;;;;2.74;100.00;93994.47;5023591;28;20299;-70
2021/01/23 00:35:38;;;;;;;6.33;3.07;;;;;;;2.66;100.00;93997.19;5025403;28;20208;-70
2021/01/23 00:38:04;;;;;;;2.43;1.70;;;;;;;2.51;100.00;94004.19;5024158;28;20274;-70
2021/01/23 00:40:30;;;;;;;3.13;2.07;;;;;;;2.38;100.00;94010.22;5025993;28;20231;-70
2021/01/23 00:42:56;;;;;;;5.00;2.27;;;;;;;2.29;100.00;94012.13;5025830;28;20212;-70
2021/01/23 00:45:22;;;;;;;4.27;2.73;;;;;;;2.23;100.00;94018.06;5024340;28;20568;-70
2021/01/23 00:47:48;;;;;;;1.60;1.43;;;;;;;2.12;100.00;94025.50;5024910;28;20229;-70
2021/01/23 00:50:14;;;;;;;1.37;1.03;;;;;;;2.00;100.00;94024.34;5023700;28;20217;-70
2021/01/23 00:52:40;;;;;;;1.80;1.13;;;;;;;1.94;100.00;94038.03;5024137;28;20199;-70
2021/01/23 00:55:07;;;;;;;2.33;1.23;;;;;;;1.81;100.00;94037.84;5024378;28;20315;-70
2021/01/23 00:57:33;;;;;;;2.17;1.80;;;;;;;1.79;100.00;94052.78;5026528;28;20232;-70
2021/01/23 01:00:00;;;;;;;2.30;1.53;;;;;;;1.78;100.00;94053.75;5026303;28;20726;-70
2021/01/23 01:02:26;;;;;;;1.60;1.23;;;;;;;1.70;100.00;94055.66;5028173;28;20212;-70
2021/01/23 01:04:52;;;;;;;1.67;1.20;;;;;;;1.59;100.00;94064.66;5027035;28;20309;-70
2021/01/23 01:07:18;;;;;;;1.60;0.87;;;;;;;1.54;100.00;94077.34;5027349;28;20259;-70
2021/01/23 01:09:44;;;;;;;0.97;0.70;;;;;;;1.52;100.00;94088.91;5027470;28;20685;-70
2021/01/23 01:12:10;;;;;;;1.73;1.00;;;;;;;1.50;100.00;94096.03;5029492;28;20206;-70
2021/01/23 01:14:36;;;;;;;1.10;0.90;;;;;;;1.49;100.00;94100.44;5029526;28;20213;-70
2021/01/23 01:17:03;;;;;;;1.20;0.77;;;;;;;1.46;100.00;94102.56;5031887;28;20616;-70
2021/01/23 01:19:29;;;;;;;1.03;0.80;;;;;;;1.43;100.00;94106.31;5033204;28;20210;-70
2021/01/23 01:21:55;;;;;;;1.80;1.27;;;;;;;1.41;100.00;94116.06;5032600;28;20240;-71
2021/01/23 01:24:21;;;;;;;2.07;1.30;;;;;;;1.45;100.00;94124.28;5031174;28;20256;-70
2021/01/23 01:26:47;;;;;;;1.40;1.30;;;;;;;1.40;100.00;94129.19;5030547;28;20733;-70
2021/01/23 01:29:13;;;;;;;1.50;1.07;;;;;;;1.45;100.00;94140.69;5029450;28;20252;-70
2021/01/23 01:31:39;;;;;;;1.03;0.93;;;;;;;1.49;100.00;94146.31;5029910;28;20281;-70
2021/01/23 01:34:06;;;;;;;1.20;1.00;;;;;;;1.47;100.00;94154.25;5029063;28;20981;-70
2021/01/23 01:36:32;;;;;;;1.20;1.10;;;;;;;1.44;100.00;94162.41;5028187;28;20226;-70
2021/01/23 01:38:58;;;;;;;0.90;0.83;;;;;;;1.47;100.00;94161.25;5028726;28;20678;-70
2021/01/23 01:41:23;;;;;;;1.07;0.97;;;;;;;1.41;100.00;94173.13;5028020;28;20211;-70
2021/01/23 01:43:49;;;;;;;1.03;0.93;;;;;;;1.41;100.00;94165.34;5028260;28;20202;-70
2021/01/23 01:46:16;;;;;;;1.00;0.90;;;;;;;1.36;100.00;94172.03;5027074;28;20256;-70
2021/01/23 01:48:42;;;;;;;1.00;0.90;;;;;;;1.37;100.00;94182.22;5027000;28;20684;-70
2021/01/23 01:51:09;;;;;;;0.87;0.70;;;;;;;1.39;100.00;94180.28;5027517;28;20226;-70
2021/01/23 01:53:38;;;;;;;1.00;0.90;;;;;;;1.39;100.00;94195.03;5027913;28;20604;-70
2021/01/23 01:56:06;;;;;;;0.50;0.50;;;;;;;1.36;100.00;94191.00;5026860;28;20624;-70
2021/01/23 01:58:32;;;;;;;0.73;0.60;;;;;;;1.33;100.00;94196.50;5027379;28;20205;-70
2021/01/23 02:00:58;;;;;;;0.73;0.73;;;;;;;1.39;100.00;94195.84;5029042;28;20209;-70
2021/01/23 02:03:55;;;;;;;2.40;0.90;;;;;;;1.32;100.00;94205.28;5028980;28;20797;-70
2021/01/23 02:06:40;;;;;;;1.00;0.90;;;;;;;1.34;100.00;94205.91;5026515;28;20717;-70
2021/01/23 02:09:14;;;;;;;1.10;0.90;;;;;;;1.31;100.00;94218.41;5028166;28;20213;-70
2021/01/23 02:11:50;;;;;;;1.70;0.90;;;;;;;1.29;100.00;94220.38;5027998;28;20206;-70
2021/01/23 02:14:24;;;;;;;0.97;0.70;;;;;;;1.29;100.00;94222.97;5027861;28;20590;-70
2021/01/23 02:16:53;;;;;;;1.23;0.60;;;;;;;1.30;100.00;94229.78;5027499;28;20220;-70
2021/01/23 02:19:32;;;;;;;0.90;0.90;;;;;;;1.34;100.00;94239.63;5027724;28;20214;-70
2021/01/23 02:22:11;;;;;;;0.60;0.60;;;;;;;1.28;100.00;94247.28;5027981;28;20702;-70
2021/01/23 02:24:37;;;;;;;0.77;0.70;;;;;;;1.24;100.00;94257.19;5029633;28;20565;-70
2021/01/23 02:27:15;;;;;;;1.00;0.83;;;;;;;1.27;100.00;94256.88;5029339;28;20224;-70
2021/01/23 02:29:56;;;;;;;0.40;0.40;;;;;;;1.29;100.00;94269.66;5029006;28;20213;-70
2021/01/23 02:32:28;;;;;;;0.50;0.50;;;;;;;1.21;100.00;94278.28;5029210;28;20263;-70
2021/01/23 02:34:55;;;;;;;0.60;0.57;;;;;;;1.18;100.00;94282.19;5031045;28;20244;-70
2021/01/23 02:37:22;;;;;;;0.50;0.50;;;;;;;1.12;100.00;94288.03;5030255;28;20241;-70
2021/01/23 02:39:49;;;;;;;0.93;0.60;;;;;;;1.16;100.00;94294.50;5030783;28;20215;-70
2021/01/23 02:42:15;;;;;;;0.40;0.40;;;;;;;1.13;100.00;94306.03;5030548;28;20892;-70
2021/01/23 02:44:41;;;;;;;0.90;0.70;;;;;;;1.09;100.00;94311.72;5029723;28;20293;-70
2021/01/23 02:47:07;;;;;;;0.50;0.50;;;;;;;1.09;100.00;94315.13;5029283;28;20253;-70
2021/01/23 02:49:33;;;;;;;0.50;0.50;;;;;;;1.06;100.00;94325.00;5028191;28;20226;-70
2021/01/23 02:52:04;;;;;;;0.47;0.47;;;;;;;1.06;100.00;94325.84;5027698;28;20256;-70
2021/01/23 02:54:38;;;;;;;1.40;0.40;;;;;;;1.07;100.00;94327.47;5026934;28;20197;-69
2021/01/23 02:57:07;;;;;;;0.53;0.53;;;;;;;1.07;100.00;94327.47;5026451;28;20221;-70
2021/01/23 02:59:34;;;;;;;0.40;0.40;;;;;;;1.02;100.00;94334.09;5026225;28;20198;-70
2021/01/23 03:02:02;;;;;;;0.40;0.40;;;;;;;1.00;100.00;94346.44;5027029;28;20221;-70
2021/01/23 03:04:30;;;;;;;0.53;0.53;;;;;;;1.03;100.00;94346.09;5026884;28;20209;-70
2021/01/23 03:06:57;;;;;;;0.43;0.43;;;;;;;1.03;100.00;94353.88;5027104;28;20229;-69
2021/01/23 03:09:25;;;;;;;0.77;0.77;;;;;;;1.03;100.00;94359.06;5028052;28;20279;-69
2021/01/23 03:11:52;;;;;;;1.07;0.77;;;;;;;1.04;100.00;94363.28;5028377;28;20626;-69
2021/01/23 03:14:19;;;;;;;1.80;0.73;;;;;;;1.01;100.00;94369.59;5026978;28;20228;-69
2021/01/23 03:16:48;;;;;;;1.10;0.70;;;;;;;1.02;100.00;94378.16;5027323;28;20214;-69
2021/01/23 03:19:14;;;;;;;0.60;0.60;;;;;;;1.01;100.00;94384.34;5027059;28;20202;-69
2021/01/23 03:21:40;;;;;;;0.97;0.80;;;;;;;1.03;100.00;94397.94;5028164;28;20206;-69
2021/01/23 03:24:08;;;;;;;0.83;0.70;;;;;;;1.02;100.00;94407.53;5027629;28;20221;-69
2021/01/23 03:26:34;;;;;;;1.10;1.00;;;;;;;0.98;100.00;94410.59;5026011;28;20221;-69
2021/01/23 03:29:01;;;;;;;1.57;0.93;;;;;;;0.98;100.00;94424.38;5027573;28;20201;-69
2021/01/23 03:31:27;;;;;;;1.03;0.93;;;;;;;1.03;100.00;94434.25;5026768;28;20226;-69
2021/01/23 03:33:53;;;;;;;1.53;1.10;;;;;;;1.01;100.00;94431.03;5027543;28;20214;-70
2021/01/23 03:36:19;;;;;;;1.03;0.70;;;;;;;1.01;100.00;94438.81;5026057;28;20256;-69
2021/01/23 03:38:45;;;;;;;0.70;0.50;;;;;;;0.99;100.00;94443.34;5024178;28;20204;-69
2021/01/23 03:41:12;;;;;;;1.20;0.90;;;;;;;0.98;100.00;94446.91;5025903;28;20212;-69
2021/01/23 03:43:38;;;;;;;0.63;0.60;;;;;;;0.94;100.00;94446.44;5023876;28;20718;-70
2021/01/23 03:46:04;;;;;;;0.83;0.80;;;;;;;0.96;100.00;94454.03;5022450;28;20325;-70
2021/01/23 03:48:29;;;;;;;0.80;0.80;;;;;;;0.95;100.00;94462.78;5022537;28;20616;-70
2021/01/23 03:50:55;;;;;;;1.20;0.60;;;;;;;0.96;100.00;94459.22;5024353;28;20222;-70
2021/01/23 03:53:22;;;;;;;1.83;1.20;;;;;;;0.95;100.00;94478.34;5024205;28;20207;-70
2021/01/23 03:55:48;;;;;;;3.00;1.67;;;;;;;0.95;100.00;94483.53;5023131;28;20210;-70
2021/01/23 03:58:17;;;;;;;3.63;1.90;;;;;;;0.96;100.00;94490.34;5022940;28;20233;-70
2021/01/23 04:00:43;;;;;;;3.47;1.90;;;;;;;1.00;100.00;94497.63;5022642;28;20218;-70
2021/01/23 04:03:09;;;;;;;1.63;1.03;;;;;;;1.03;100.00;94501.66;5022016;28;20259;-70
2021/01/23 04:05:35;;;;;;;1.70;1.20;;;;;;;0.98;100.00;94499.56;5020272;28;20204;-70
2021/01/23 04:08:02;;;;;;;1.17;1.07;;;;;;;1.01;100.00;94514.78;5021517;28;20222;-70
2021/01/23 04:10:29;;;;;;;1.87;1.20;;;;;;;0.98;100.00;94515.13;5021026;28;20226;-70
2021/01/23 04:12:55;;;;;;;1.67;1.30;;;;;;;1.03;100.00;94517.22;5023521;28;20209;-69
2021/01/23 04:15:23;;;;;;;4.30;2.17;;;;;;;1.04;100.00;94537.00;5019487;28;20628;-70
2021/01/23 04:17:49;;;;;;;1.87;1.33;;;;;;;1.03;100.00;94543.16;5020110;28;20237;-70
2021/01/23 04:20:15;;;;;;;3.40;2.20;;;;;;;1.06;100.00;94553.19;5019267;28;20198;-70
2021/01/23 04:22:41;;;;;;;3.70;2.40;;;;;;;1.06;100.00;94550.59;5018531;28;20206;-70
2021/01/23 04:25:08;;;;;;;3.17;2.20;;;;;;;1.11;100.00;94561.31;5017346;28;20654;-70
2021/01/23 04:27:34;;;;;;;2.27;1.33;;;;;;;1.10;100.00;94570.09;5017972;28;20333;-70
2021/01/23 04:30:01;;;;;;;4.50;2.63;;;;;;;1.11;100.00;94567.31;5017099;28;20726;-70
2021/01/23 04:32:27;;;;;;;4.00;2.40;;;;;;;1.11;100.00;94576.88;5017403;28;20692;-70
2021/01/23 04:34:53;;;;;;;3.17;1.80;;;;;;;1.11;100.00;94571.69;5017828;28;20214;-70
2021/01/23 04:37:20;;;;;;;4.27;2.63;;;;;;;1.09;100.00;94577.03;5017276;28;20308;-70
2021/01/23 04:39:46;;;;;;;3.47;2.33;;;;;;;1.15;100.00;94573.00;5018798;28;20198;-70
2021/01/23 04:42:12;;;;;;;4.70;2.73;;;;;;;1.12;100.00;94581.91;5018000;28;20210;-70
2021/01/23 04:44:40;;;;;;;3.67;2.20;;;;;;;1.12;100.00;94583.69;5017111;28;20211;-70
2021/01/23 04:47:06;;;;;;;4.70;2.50;;;;;;;1.11;100.00;94582.88;5016861;28;20712;-70
2021/01/23 04:49:34;;;;;;;5.93;3.73;;;;;;;1.15;100.00;94583.38;5018028;28;20210;-70
2021/01/23 04:52:03;;;;;;;3.93;2.70;;;;;;;1.13;100.00;94587.91;5023149;28;20225;-70
2021/01/23 04:54:30;;;;;;;4.20;2.23;;;;;;;1.18;100.00;94583.06;5024905;28;20212;-70
2021/01/23 04:56:56;;;;;;;3.53;2.83;;;;;;;1.19;100.00;94587.28;5023399;28;20229;-70
2021/01/23 04:59:22;;;;;;;5.17;2.83;;;;;;;1.14;100.00;94579.16;5023446;28;20198;-70
2021/01/23 05:02:13;;;;;;;5.50;3.20;;;;;;;1.14;100.00;94574.78;5023743;28;20613;-70
2021/01/23 05:04:44;;;;;;;3.20;2.10;;;;;;;1.13;100.00;94570.53;5023925;28;20233;-70
2021/01/23 05:07:10;;;;;;;5.73;2.80;;;;;;;1.14;100.00;94568.78;5023699;28;20218;-70
2021/01/23 05:09:37;;;;;;;2.97;1.97;;;;;;;1.13;100.00;94575.75;5027051;28;20211;-70
2021/01/23 05:12:03;;;;;;;3.73;2.03;;;;;;;1.16;100.00;94584.97;5026079;28;20199;-70
2021/01/23 05:14:29;;;;;;;4.03;2.73;;;;;;;1.16;100.00;94582.38;5026754;28;20205;-70
2021/01/23 05:17:03;;;;;;;8.77;1.87;;;;;;;1.13;100.00;94586.09;5025317;28;20315;-70
2021/01/23 05:19:40;;;;;;;4.70;2.57;;;;;;;1.12;100.00;94578.50;5026906;28;20220;-70
2021/01/23 05:22:07;;;;;;;4.80;2.77;;;;;;;1.14;100.00;94581.75;5027665;28;20208;-70
2021/01/23 05:24:47;;;;;;;3.80;2.27;;;;;;;1.15;100.00;94585.97;5028777;28;20200;-70
2021/01/23 05:27:13;;;;;;;3.47;1.93;;;;;;;1.17;100.00;94582.22;5027640;28;20240;-70
2021/01/23 05:29:53;;;;;;;4.10;2.27;;;;;;;1.15;100.00;94588.56;5025488;28;20261;-70
2021/01/23 05:32:20;;;;;;;4.03;2.57;;;;;;;1.13;100.00;94590.50;5026281;28;20216;-70
2021/01/23 05:34:46;;;;;;;5.50;2.97;;;;;;;1.08;100.00;94600.53;5027373;28;20202;-70
2021/01/23 05:37:30;;;;;;;4.00;2.80;;;;;;;1.12;100.00;94599.25;5025942;28;20236;-70
2021/01/23 05:39:56;;;;;;;5.80;2.50;;;;;;;1.12;100.00;94594.88;5025522;28;20866;-70
2021/01/23 05:42:22;;;;;;;5.13;3.17;;;;;;;1.12;100.00;94599.25;5024111;28;20206;-70
2021/01/23 05:45:04;;;;;;;5.07;2.47;;;;;;;1.10;100.00;94602.00;5025252;28;20260;-70
2021/01/23 05:47:30;;;;;;;5.37;3.10;;;;;;;1.10;100.00;94601.19;5024332;28;20229;-70
2021/01/23 05:49:56;;;;;;;7.10;3.17;;;;;;;1.10;100.00;94608.97;5026369;28;20222;-70
2021/01/23 05:52:23;;;;;;;4.10;2.27;;;;;;;1.12;100.00;94601.84;5027381;28;20214;-70
2021/01/23 05:54:49;;;;;;;3.67;2.27;;;;;;;1.12;100.00;94607.03;5028853;28;20205;-70
2021/01/23 05:57:16;;;;;;;3.20;2.27;;;;;;;1.13;100.00;94613.84;5029091;28;20237;-70
2021/01/23 05:59:42;;;;;;;6.20;3.50;;;;;;;1.10;100.00;94621.94;5027207;28;20224;-69
2021/01/23 06:02:10;;;;;;;5.93;3.60;;;;;;;1.11;100.00;94620.97;5026091;28;20213;-70
2021/01/23 06:04:37;;;;;;;8.53;3.93;;;;;;;1.16;100.00;94632.50;5029009;28;20196;-70
2021/01/23 06:07:03;;;;;;;5.50;3.20;;;;;;;1.10;100.00;94632.31;5026042;28;20234;-69
2021/01/23 06:09:37;;;;;;;5.70;3.53;;;;;;;1.10;100.00;94637.50;5026647;28;20916;-70
2021/01/23 06:12:03;;;;;;;3.77;2.37;;;;;;;1.12;100.00;94641.56;5027659;28;20208;-69
2021/01/23 06:14:37;;;;;;;7.57;3.80;;;;;;;1.11;100.00;94647.72;5030088;28;20280;-69
2021/01/23 06:17:03;;;;;;;6.30;3.73;;;;;;;1.17;100.00;94654.03;5029558;28;20229;-69
2021/01/23 06:19:40;;;;;;;9.40;3.77;;;;;;;1.17;100.00;94651.44;5030272;28;20597;-69
2021/01/23 06:22:07;;;;;;;8.80;3.93;;;;;;;1.20;100.00;94654.53;5031321;28;20201;-71
2021/01/23 06:24:54;;;;;;;10.07;4.30;;;;;;;1.18;100.00;94660.84;5030842;28;20201;-71
2021/01/23 06:27:20;;;;;;;8.13;4.33;;;;;;;1.18;100.00;94666.06;5030699;28;20239;-69
2021/01/23 06:29:46;;;;;;;9.10;4.47;;;;;;;1.17;100.00;94667.81;5029614;28;20234;-69
2021/01/23 06:32:30;;;;;;;10.87;4.37;;;;;;;1.19;100.00;94664.09;5029931;28;20263;-69
2021/01/23 06:34:58;;;;;;;9.60;5.13;;;;;;;1.19;100.00;94674.47;5029042;28;20335;-70
2021/01/23 06:37:27;;;;;;;6.00;2.67;;;;;;;1.19;100.00;94675.47;5029397;28;20225;-69
2021/01/23 06:40:05;;;;;;;9.70;4.87;;;;;;;1.21;100.00;94680.31;5029299;28;20225;-69
2021/01/23 06:42:31;;;;;;;11.07;4.93;;;;;;;1.22;100.00;94676.75;5029026;28;20252;-69
2021/01/23 06:45:10;;;;;;;13.57;5.63;;;;;;;1.23;100.00;94681.00;5031193;28;20217;-69
2021/01/23 06:47:38;;;;;;;11.93;5.10;;;;;;;1.30;100.00;94678.56;5031037;28;20223;-70
2021/01/23 06:50:05;;;;;;;12.40;5.20;;;;;;;1.32;100.00;94685.22;5030760;28;20229;-69
2021/01/23 06:52:31;;;;;;;10.43;5.57;;;;;;;1.31;100.00;94693.13;5030453;28;20677;-70
2021/01/23 06:54:57;;;;;;;10.07;4.83;;;;;;;1.36;100.00;94690.88;5030715;28;20247;-70
2021/01/23 06:57:24;;;;;;;10.60;5.30;;;;;;;1.31;100.00;94688.78;5031214;28;20665;-70
2021/01/23 06:59:50;;;;;;;9.37;4.03;;;;;;;1.36;100.00;94690.88;5030976;28;20206;-70
2021/01/23 07:02:17;;;;;;;7.87;4.07;;;;;;;1.35;100.00;94689.25;5030374;28;20210;-70
2021/01/23 07:04:45;;;;;;;11.10;5.57;;;;;;;1.31;100.00;94691.38;5029767;28;20207;-70
2021/01/23 07:07:12;;;;;;;10.33;5.50;;;;;;;1.34;100.00;94690.25;5028616;28;20232;-70
2021/01/23 07:09:49;;;;;;;8.57;5.17;;;;;;;1.37;100.00;94682.94;5028818;28;20621;-70
2021/01/23 07:12:34;;;;;;;10.67;5.70;;;;;;;1.41;100.00;94681.66;5028520;28;20203;-70
2021/01/23 07:15:01;;;;;;;7.07;3.90;;;;;;;1.36;100.00;94681.34;5026168;28;20193;-70
2021/01/23 07:17:26;;;;;;;8.40;4.40;;;;;;;1.28;100.00;94676.09;5028534;28;20229;-70
2021/01/23 07:19:54;;;;;;;9.43;4.87;;;;;;;1.35;100.00;94669.31;5028539;28;20225;-70
2021/01/23 07:22:20;;;;;;;7.10;4.63;;;;;;;1.39;100.00;94678.41;5018244;28;20934;-70
2021/01/23 07:24:48;;;;;;;7.87;4.60;;;;;;;1.35;100.00;94678.88;5017109;28;20766;-70
2021/01/23 07:27:14;;;;;;;9.53;5.97;;;;;;;1.34;100.00;94675.47;5023650;28;20596;-71
2021/01/23 07:29:48;;;;;;;11.23;4.73;;;;;;;1.33;100.00;94676.44;5017058;28;20212;-71
2021/01/23 07:32:14;;;;;;;12.57;6.47;;;;;;;1.37;100.00;94677.75;5017027;28;20215;-71
2021/01/23 07:34:52;;;;;;;10.53;5.03;;;;;;;1.40;100.00;94676.63;5016891;28;20327;-71
2021/01/23 07:37:44;;;;;;;9.57;5.33;;;;;;;1.45;100.00;94679.53;5015438;28;20226;-71
2021/01/23 07:40:12;;;;;;;9.03;4.23;;;;;;;1.44;100.00;94678.75;5017058;28;20531;-71
2021/01/23 07:42:39;;;;;;;8.53;3.80;;;;;;;1.44;100.00;94683.09;5017604;28;20206;-70
2021/01/23 07:45:09;;;;;;;4.80;3.03;;;;;;;1.47;100.00;94672.41;5015392;28;20205;-71
2021/01/23 07:47:36;;;;;;;5.47;3.17;;;;;;;1.49;100.00;94679.06;5015000;28;20232;-71
2021/01/23 07:50:05;;;;;;;6.40;2.73;;;;;;;1.39;100.00;94678.41;5017257;28;20283;-71
2021/01/23 07:52:31;;;;;;;5.47;3.37;;;;;;;1.41;100.00;94679.06;5016138;28;20209;-70
2021/01/23 07:54:57;;;;;;;9.13;3.80;;;;;;;1.41;100.00;94679.06;5014119;28;20202;-71
2021/01/23 07:57:23;;;;;;;6.63;3.40;;;;;;;1.42;100.00;94677.28;5015760;28;20796;-71
2021/01/23 07:59:50;;;;;;;8.33;3.90;;;;;;;1.40;100.00;94687.81;5016752;28;20204;-71
2021/01/23 08:02:18;;;;;;;5.93;3.70;;;;;;;1.46;100.00;94692.34;5016596;28;20200;-71
2021/01/23 08:04:47;;;;;;;7.00;3.73;;;;;;;1.41;100.00;94684.25;5016712;28;20209;-71
2021/01/23 08:07:41;;;;;;;5.80;3.63;;;;;;;1.48;100.00;94681.84;5015598;28;20222;-71
2021/01/23 08:10:16;;;;;;;7.93;3.97;;;;;;;1.42;100.00;94685.06;5014975;28;20277;-71
2021/01/23 08:12:44;;;;;;;8.13;4.63;;;;;;;1.38;100.00;94687.16;5016661;28;20211;-71
2021/01/23 08:15:11;;;;;;;7.27;4.23;;;;;;;1.45;100.00;94689.91;5015821;28;20195;-71
2021/01/23 08:17:43;;;;;;;10.63;4.40;;;;;;;1.53;100.00;94693.34;5015702;28;20376;-71
2021/01/23 08:20:11;;;;;;;6.17;3.40;;;;;;;1.54;100.00;94687.19;5016677;28;20221;-71
2021/01/23 08:22:57;;;;;;;7.17;3.60;;;;;;;1.59;100.00;94684.94;5015648;28;20203;-71
2021/01/23 08:25:25;;;;;;;8.47;3.93;;;;;;;1.65;100.00;94680.88;5019278;28;20221;-70
2021/01/23 08:27:51;;;;;;;12.63;4.13;;;;;;;1.58;100.00;94683.31;5023323;28;20221;-71
2021/01/23 08:30:19;;;;;;;9.17;4.53;;;;;;;1.63;100.00;94685.41;5023168;28;20233;-71
2021/01/23 08:32:46;;;;;;;13.47;6.07;;;;;;;1.61;100.00;94690.75;5022374;28;21173;-71
2021/01/23 08:35:12;;;;;;;13.33;6.13;;;;;;;1.75;100.00;94684.13;5022265;28;20856;-70
2021/01/23 08:37:38;;;;;;;11.30;5.73;;;;;;;1.76;100.00;94683.97;5023067;28;20228;-71
2021/01/23 08:40:06;;;;;;;14.10;6.00;;;;;;;1.88;100.00;94683.50;5022657;28;20204;-71
2021/01/23 08:42:32;;;;;;;10.70;4.90;;;;;;;1.85;100.00;94677.81;5022973;28;20586;-71
2021/01/23 08:44:58;;;;;;;8.13;4.47;;;;;;;2.00;100.00;94682.19;5022176;28;20228;-71
2021/01/23 08:47:24;;;;;;;10.10;5.03;;;;;;;1.98;100.00;94678.13;5021677;28;20660;-71
2021/01/23 08:49:51;;;;;;;8.93;4.17;;;;;;;2.09;100.00;94675.19;5023115;28;20667;-71
2021/01/23 08:52:17;;;;;;;9.70;5.00;;;;;;;2.09;100.00;94670.81;5022953;28;20216;-71
2021/01/23 08:54:43;;;;;;;10.73;5.20;;;;;;;2.28;100.00;94667.03;5021900;28;20204;-71
2021/01/23 08:57:09;;;;;;;8.43;5.00;;;;;;;2.29;100.00;94671.25;5021702;28;20319;-71
2021/01/23 08:59:34;;;;;;;10.20;5.37;;;;;;;2.33;100.00;94668.19;5023255;28;20200;-70
2021/01/23 09:02:01;;;;;;;10.47;5.00;;;;;;;2.39;100.00;94661.50;5023297;28;20208;-70
2021/01/23 09:04:26;;;;;;;12.20;5.17;;;;;;;2.33;100.00;94667.34;5022566;28;20212;-71
2021/01/23 09:06:53;;;;;;;15.90;5.87;;;;;;;2.35;100.00;94662.81;5021428;28;20242;-70
2021/01/23 09:09:21;;;;;;;13.97;6.13;;;;;;;2.33;100.00;94667.34;5023256;28;20217;-70
2021/01/23 09:11:47;;;;;;;18.57;8.23;;;;;;;2.49;100.00;94668.13;5022852;28;20315;-71
2021/01/23 09:14:13;;;;;;;20.77;8.23;;;;;;;2.54;100.00;94661.44;5022008;28;20201;-70
2021/01/23 09:16:39;;;;;;;15.73;6.87;;;;;;;2.67;100.00;94650.53;5022354;28;21168;-70
2021/01/23 09:19:05;;;;;;;14.43;6.20;;;;;;;2.59;100.00;94653.16;5022517;28;20197;-70
2021/01/23 09:21:31;;;;;;;12.20;5.90;;;;;;;2.62;100.00;94653.63;5020416;28;20225;-70
2021/01/23 09:23:58;;;;;;;20.20;6.80;;;;;;;2.64;100.00;94651.66;5022350;28;20198;-71
2021/01/23 09:26:24;;;;;;;12.67;7.00;;;;;;;2.84;100.00;94650.31;5021076;28;20230;-71
2021/01/23 09:28:50;;;;;;;13.80;6.50;;;;;;;2.87;100.00;94655.16;5021413;28;20248;-70
2021/01/23 09:31:16;;;;;;;16.03;7.67;;;;;;;2.94;100.00;94652.69;5021481;28;20221;-71
2021/01/23 09:33:42;;;;;;;19.37;7.83;;;;;;;2.87;100.00;94656.97;5022747;28;20991;-71
2021/01/23 09:36:08;;;;;;;16.40;6.67;;;;;;;2.61;100.00;94654.63;5019651;28;20256;-71
2021/01/23 09:38:34;;;;;;;12.83;7.30;;;;;;;2.47;100.00;94650.09;5019408;28;20201;-71
2021/01/23 09:41:01;;;;;;;19.57;8.27;;;;;;;2.59;100.00;94645.34;5019326;28;20197;-70
2021/01/23 09:43:27;;;;;;;17.60;7.87;;;;;;;2.63;100.00;94644.03;5019300;28;20631;-71
2021/01/23 09:45:53;;;;;;;13.97;6.97;;;;;;;2.61;100.00;94646.81;5018712;28;20617;-71
2021/01/23 09:48:20;;;;;;;16.10;7.27;;;;;;;2.65;100.00;94639.50;5018963;28;20236;-71
2021/01/23 09:50:46;;;;;;;22.57;8.63;;;;;;;2.64;100.00;94635.28;5018708;28;20222;-71
2021/01/23 09:53:12;;;;;;;18.40;6.90;;;;;;;2.40;100.00;94624.16;5018929;28;20304;-71
2021/01/23 09:55:37;;;;;;;17.03;6.30;;;;;;;2.50;100.00;94628.16;5019341;28;21296;-71
2021/01/23 09:58:04;;;;;;;15.57;7.07;;;;;;;2.48;100.00;94620.53;5019338;28;20226;-71
2021/01/23 10:00:30;;;;;;;25.03;7.70;;;;;;;2.48;100.00;94619.72;5018438;28;20205;-71
2021/01/23 10:02:56;;;;;;;18.43;7.57;;;;;;;2.61;100.00;94623.41;5019080;28;20231;-71
2021/01/23 10:05:22;;;;;;;18.40;8.03;;;;;;;2.76;100.00;94611.34;5018644;28;20245;-71
2021/01/23 10:07:48;;;;;;;21.23;8.87;;;;;;;2.89;100.00;94610.75;5017848;28;20698;-71
2021/01/23 10:10:14;;;;;;;24.23;8.67;;;;;;;3.00;100.00;94608.59;5018365;28;20286;-71
2021/01/23 10:12:40;;;;;;;28.73;9.97;;;;;;;3.16;100.00;94601.50;5019129;28;20316;-71
2021/01/23 10:15:08;;;;;;;24.50;10.90;;;;;;;3.10;100.00;94599.59;5018068;28;20233;-71
2021/01/23 10:17:33;;;;;;;17.93;8.10;;;;;;;2.98;100.00;94597.56;5018199;28;21006;-71
2021/01/23 10:19:59;;;;;;;16.73;8.27;;;;;;;3.09;100.00;94595.38;5018934;28;20285;-71
2021/01/23 10:22:25;;;;;;;19.80;8.77;;;;;;;3.13;100.00;94585.41;5018788;28;20259;-71
2021/01/23 10:24:51;;;;;;;21.20;9.17;;;;;;;3.15;100.00;94584.25;5018549;28;20210;-71
2021/01/23 10:27:17;;;;;;;24.93;9.23;;;;;;;3.42;100.00;94580.34;5017727;28;20217;-71
2021/01/23 10:29:44;;;;;;;19.27;8.10;;;;;;;4.12;100.00;94575.47;5018297;28;20293;-71
2021/01/23 10:32:10;;;;;;;15.57;7.27;;;;;;;4.21;100.00;94577.03;5018101;28;20226;-71
2021/01/23 10:34:37;;;;;;;14.73;7.85;;;;;;;4.24;100.00;94577.47;5018252;28;20445;-71
2021/01/23 10:37:03;;;;;;;14.43;7.47;;;;;;;4.20;100.00;94578.03;5018014;28;20226;-71
2021/01/23 10:39:29;;;;;;;13.83;7.30;;;;;;;4.03;100.00;94568.72;5018038;28;20201;-70
2021/01/23 10:41:55;;;;;;;16.17;6.40;;;;;;;4.01;100.00;94568.13;5016602;28;20252;-71
2021/01/23 10:44:21;;;;;;;16.63;7.03;;;;;;;3.96;100.00;94557.41;5018473;28;20292;-70
2021/01/23 10:46:47;;;;;;;20.03;8.40;;;;;;;4.22;100.00;94559.59;5017678;28;20221;-71
2021/01/23 10:49:14;;;;;;;14.07;7.43;;;;;;;4.00;100.00;94563.09;5017781;28;20209;-71
2021/01/23 10:51:40;;;;;;;12.87;7.63;;;;;;;4.07;100.00;94562.19;5018353;28;20226;-71
2021/01/23 10:54:06;;;;;;;12.20;6.90;;;;;;;4.07;100.00;94566.59;5018111;28;20229;-71
2021/01/23 10:56:32;;;;;;;15.77;7.17;;;;;;;4.09;100.00;94564.63;5017076;28;20232;-71
2021/01/23 10:59:01;;;;;;;12.30;6.70;;;;;;;4.02;100.00;94556.72;5018143;28;20271;-71
2021/01/23 11:01:28;;;;;;;15.80;7.90;;;;;;;3.82;100.00;94546.97;5017434;28;20202;-71
2021/01/23 11:03:54;;;;;;;16.00;7.40;;;;;;;3.79;100.00;94542.09;5017464;28;20259;-71
2021/01/23 11:06:21;;;;;;;16.40;7.43;;;;;;;3.72;100.00;94546.41;5017670;28;20834;-71
2021/01/23 11:08:47;;;;;;;12.70;7.40;;;;;;;3.34;100.00;94549.97;5016217;28;20822;-71
2021/01/23 11:11:12;;;;;;;15.43;7.80;;;;;;;3.14;100.00;94548.03;5017521;28;20229;-70
2021/01/23 11:13:38;;;;;;;15.63;7.67;;;;;;;3.18;100.00;94547.50;5017346;28;20772;-70
2021/01/23 11:16:05;;;;;;;15.23;7.43;;;;;;;3.14;100.00;94541.03;5017682;28;20636;-71
2021/01/23 11:18:31;;;;;;;20.67;7.90;;;;;;;3.29;100.00;94543.69;5017339;28;20547;-70
2021/01/23 11:20:57;;;;;;;16.77;8.40;;;;;;;3.44;100.00;94532.34;5016831;28;20672;-71
2021/01/23 11:23:24;;;;;;;16.20;8.40;;;;;;;3.48;100.00;94527.59;5017789;28;20216;-70
2021/01/23 11:25:50;;;;;;;16.67;8.37;;;;;;;3.51;100.00;94532.44;5017255;28;20206;-71
2021/01/23 11:28:16;;;;;;;18.63;9.27;;;;;;;3.57;100.00;94523.94;5017004;28;20212;-70
2021/01/23 11:30:42;;;;;;;16.07;8.20;;;;;;;3.60;100.00;94524.38;5017747;28;20782;-71
2021/01/23 11:33:08;;;;;;;18.50;8.50;;;;;;;3.63;100.00;94514.41;5017578;28;20198;-71
2021/01/23 11:35:34;;;;;;;16.53;8.20;;;;;;;3.80;100.00;94515.88;5016578;28;20226;-71